Time;durP1;ratioP1;P1;durP2;ratioP2;P2;SDS_P1;SDS_P2;PMS_P1;PMS_P2;Temp;Humidity;BMP_temperature;BMP_pressure;BME280_temperature;BME280_humidity;BME280_pressure;Samples;Min_cycle;Max_cycle;Signal;HPM_P1;HPM_P2
2023/01/16 00:01:50;;;;;;;33.75;18.83;;;;;;;7.96;66.11;99088.81;7709545;32;37824;-81
2023/01/16 00:06:07;;;;;;;31.50;17.87;;;;;;;7.87;66.32;99086.63;7699911;32;38025;-81
2023/01/16 00:10:23;;;;;;;34.25;17.08;;;;;;;8.07;65.61;99099.38;7709574;32;38883;-81
2023/01/16 00:14:39;;;;;;;31.48;16.95;;;;;;;7.94;66.04;99080.94;7696948;32;40008;-81
2023/01/16 00:18:56;;;;;;;34.00;17.60;;;;;;;7.74;66.22;99089.88;7709657;32;38006;-81
2023/01/16 00:23:12;;;;;;;34.42;17.52;;;;;;;7.74;66.39;99095.28;7684805;32;38006;-81
2023/01/16 00:27:28;;;;;;;30.40;17.08;;;;;;;7.86;65.63;99089.59;7693807;32;40131;-81
2023/01/16 00:31:44;;;;;;;34.38;17.35;;;;;;;7.82;65.54;99078.47;7684538;32;40815;-81
2023/01/16 00:36:01;;;;;;;31.27;16.90;;;;;;;7.85;65.51;99072.50;7696528;32;37990;-81
2023/01/16 00:40:18;;;;;;;29.70;15.95;;;;;;;7.72;65.88;99089.31;7710891;32;37248;-80
2023/01/16 00:44:34;;;;;;;28.00;16.33;;;;;;;7.98;65.32;99083.91;7706129;32;39362;-81
2023/01/16 00:48:50;;;;;;;36.38;18.92;;;;;;;7.90;65.58;99077.94;7683971;32;39891;-81
2023/01/16 00:53:06;;;;;;;36.90;19.90;;;;;;;7.77;66.14;99075.75;7683407;32;38027;-80
2023/01/16 00:57:22;;;;;;;35.05;18.37;;;;;;;7.84;66.28;99080.94;7692596;32;38054;-80
2023/01/16 01:01:39;;;;;;;33.70;18.45;;;;;;;7.93;66.15;99084.72;7700577;32;39475;-80
2023/01/16 01:05:56;;;;;;;29.50;16.70;;;;;;;8.00;65.85;99098.03;7694845;32;39667;-80
2023/01/16 01:10:12;;;;;;;38.17;18.33;;;;;;;7.90;66.08;99091.50;7706980;32;38625;-82
2023/01/16 01:14:28;;;;;;;33.97;18.83;;;;;;;7.98;65.93;99087.44;7705747;32;37261;-81
2023/01/16 01:18:45;;;;;;;36.60;19.40;;;;;;;8.11;65.42;99083.38;7701504;32;39239;-81
2023/01/16 01:23:01;;;;;;;35.78;19.37;;;;;;;7.99;65.74;99080.94;7695992;32;39626;-81
2023/01/16 01:27:17;;;;;;;33.17;19.87;;;;;;;7.94;65.78;99078.22;7702742;32;38530;-81
2023/01/16 01:31:33;;;;;;;32.58;17.62;;;;;;;7.92;65.94;99083.09;7707181;32;37337;-81
2023/01/16 01:35:50;;;;;;;35.97;19.65;;;;;;;8.00;65.71;99079.00;7683355;32;39316;-80
2023/01/16 01:40:07;;;;;;;41.67;20.40;;;;;;;8.00;65.76;99063.56;7682992;32;39917;-81
2023/01/16 01:45:06;;;;;;;34.22;18.73;;;;;;;7.87;66.17;99064.09;7683837;32;37608;-80
2023/01/16 01:49:27;;;;;;;37.03;18.77;;;;;;;8.02;65.74;99063.28;7582446;32;37115;-82
2023/01/16 01:53:58;;;;;;;37.92;19.77;;;;;;;7.93;66.08;99054.06;7654501;32;39228;-81
2023/01/16 01:58:21;;;;;;;34.08;18.30;;;;;;;7.88;66.03;99044.00;7694928;32;41239;-80
2023/01/16 02:02:42;;;;;;;36.47;18.30;;;;;;;7.88;66.17;99044.84;7685577;32;37982;-80
2023/01/16 02:07:05;;;;;;;30.77;17.27;;;;;;;7.88;66.18;99061.13;7697946;32;37324;-81
2023/01/16 02:11:35;;;;;;;50.63;19.20;;;;;;;7.75;66.61;99047.28;7710737;32;39883;-81
2023/01/16 02:20:26;;;;;;;31.62;17.05;;;;;;;7.83;66.38;99044.00;7712767;32;38660;-81
2023/01/16 02:25:01;;;;;;;28.92;16.17;;;;;;;7.80;66.57;99042.66;7691207;32;37362;-81
2023/01/16 02:29:35;;;;;;;36.80;17.35;;;;;;;7.70;66.75;99034.53;7685867;32;40141;-80
2023/01/16 02:34:05;;;;;;;;;;;;;;;7.72;66.66;99033.16;7687056;32;39642;-81
2023/01/16 02:38:30;;;;;;;34.88;17.48;;;;;;;7.90;66.10;99012.00;7693658;32;38264;-81
2023/01/16 02:43:23;;;;;;;31.65;15.30;;;;;;;7.81;66.52;99009.03;7701016;32;38095;-80
2023/01/16 02:47:44;;;;;;;33.07;17.20;;;;;;;7.80;66.58;99003.88;7683731;32;40132;-80
2023/01/16 02:52:09;;;;;;;30.88;16.23;;;;;;;7.89;66.29;99000.31;7674596;32;40807;-80
2023/01/16 02:56:35;;;;;;;31.73;17.00;;;;;;;7.84;66.36;98984.03;7675051;32;37612;-80
2023/01/16 03:00:57;;;;;;;33.40;16.92;;;;;;;7.78;66.62;98974.28;7688572;32;37286;-80
2023/01/16 03:05:13;;;;;;;30.95;16.90;;;;;;;7.72;66.82;98959.91;7689077;32;38464;-81
2023/01/16 03:09:32;;;;;;;45.85;18.02;;;;;;;7.64;66.98;98963.19;7703159;32;40804;-81
2023/01/16 03:14:10;;;;;;;35.22;17.92;;;;;;;7.57;67.35;98962.66;7697405;32;38685;-80
2023/01/16 03:18:46;;;;;;;43.40;19.48;;;;;;;7.68;67.25;98958.81;7687530;32;37199;-80
2023/01/16 03:23:21;;;;;;;34.55;18.15;;;;;;;7.58;67.39;98941.75;7689412;32;39771;-81
2023/01/16 03:27:45;;;;;;;135.63;21.87;;;;;;;7.63;67.35;98933.63;7685146;32;39721;-81
2023/01/16 03:32:12;;;;;;;82.88;20.52;;;;;;;7.56;67.66;98923.03;7674671;32;37885;-81
2023/01/16 03:36:32;;;;;;;83.72;19.90;;;;;;;7.48;67.84;98918.16;7711305;32;37251;-81
2023/01/16 03:40:49;;;;;;;38.70;19.05;;;;;;;7.59;67.37;98908.09;7697002;32;39365;-81
2023/01/16 03:45:20;;;;;;;48.83;20.30;;;;;;;7.86;66.65;98905.06;7685061;32;40508;-81
2023/01/16 03:49:45;;;;;;;43.47;17.55;;;;;;;7.94;66.26;98884.72;7673267;32;37917;-82
2023/01/16 03:54:07;;;;;;;39.70;18.37;;;;;;;7.91;66.49;98883.34;7685567;32;36920;-82
2023/01/16 03:58:33;;;;;;;42.25;18.23;;;;;;;8.00;65.96;98879.00;7695581;32;39845;-81
2023/01/16 04:03:27;;;;;;;34.92;16.15;;;;;;;7.72;66.59;98885.84;7691821;32;39988;-82
2023/01/16 04:08:03;;;;;;;33.75;15.73;;;;;;;7.75;66.79;98884.50;7668926;32;38367;-81
2023/01/16 04:12:23;;;;;;;33.80;15.00;;;;;;;7.88;66.39;98873.87;7681305;32;36877;-81
2023/01/16 04:16:40;;;;;;;32.45;14.65;;;;;;;7.57;67.01;98886.69;7697555;32;39824;-81
2023/01/16 04:20:57;;;;;;;28.92;14.38;;;;;;;7.72;66.80;98866.84;7696705;32;39843;-81
2023/01/16 04:25:13;;;;;;;32.65;14.18;;;;;;;7.82;66.42;98861.38;7705478;32;38766;-81
2023/01/16 04:29:30;;;;;;;26.87;13.77;;;;;;;7.68;66.55;98863.88;7710212;32;37301;-82
2023/01/16 04:33:46;;;;;;;26.85;13.75;;;;;;;7.69;66.60;98857.37;7698456;32;39315;-81
2023/01/16 04:38:02;;;;;;;28.75;13.38;;;;;;;7.71;66.57;98849.75;7688194;32;40756;-81
2023/01/16 04:42:19;;;;;;;27.95;13.98;;;;;;;7.63;66.90;98844.91;7704875;32;37947;-81
2023/01/16 04:46:37;;;;;;;30.00;14.05;;;;;;;7.79;66.35;98844.84;7687924;32;36901;-80
2023/01/16 04:50:54;;;;;;;28.98;13.40;;;;;;;7.63;66.91;98841.38;7700804;32;39290;-82
2023/01/16 04:55:11;;;;;;;27.58;13.02;;;;;;;7.71;66.59;98829.97;7689891;32;40802;-81
2023/01/16 04:59:27;;;;;;;24.50;12.05;;;;;;;7.70;66.64;98825.63;7687958;32;38454;-81
2023/01/16 05:03:44;;;;;;;30.55;13.30;;;;;;;7.79;66.38;98815.81;7698780;32;37204;-82
2023/01/16 05:08:15;;;;;;;30.58;13.98;;;;;;;7.74;66.58;98815.03;7694692;32;39372;-81
2023/01/16 05:12:31;;;;;;;31.60;14.00;;;;;;;7.75;66.49;98805.81;7702658;32;40155;-81
2023/01/16 05:16:48;;;;;;;28.40;13.00;;;;;;;7.79;66.29;98796.00;7683523;32;37824;-81
2023/01/16 05:21:04;;;;;;;26.40;12.55;;;;;;;7.56;66.93;98781.19;7683678;32;37975;-82
2023/01/16 05:25:21;;;;;;;26.85;13.32;;;;;;;7.68;66.57;98773.53;7705996;32;39071;-81
2023/01/16 05:29:37;;;;;;;27.80;13.75;;;;;;;7.84;66.06;98780.50;7709327;32;40508;-81
2023/01/16 05:33:53;;;;;;;28.12;12.57;;;;;;;7.75;65.98;98784.91;7697201;32;38892;-81
2023/01/16 05:38:10;;;;;;;30.83;13.95;;;;;;;7.84;65.59;98785.12;7670965;32;37362;-82
2023/01/16 05:42:26;;;;;;;28.98;13.73;;;;;;;7.74;66.03;98777.84;7687988;32;40119;-81
2023/01/16 05:46:42;;;;;;;25.15;11.95;;;;;;;7.72;65.98;98777.31;7694596;32;39988;-81
2023/01/16 05:51:01;;;;;;;24.48;11.52;;;;;;;7.76;65.92;98774.84;7686736;32;38025;-81
2023/01/16 05:55:18;;;;;;;27.70;12.82;;;;;;;7.79;65.60;98772.41;7706735;32;38026;-81
2023/01/16 05:59:34;;;;;;;25.88;13.27;;;;;;;7.82;65.41;98774.56;7707364;32;39429;-81
2023/01/16 06:03:50;;;;;;;29.40;13.70;;;;;;;7.87;65.45;98782.69;7699772;32;40799;-81
2023/01/16 06:08:07;;;;;;;28.48;13.05;;;;;;;7.52;66.15;98789.87;7712648;32;38130;-81
2023/01/16 06:12:24;;;;;;;28.35;12.60;;;;;;;7.57;66.21;98804.50;7657188;32;37804;-81
2023/01/16 06:16:40;;;;;;;28.45;12.30;;;;;;;7.70;65.70;98814.78;7632982;32;39428;-80
2023/01/16 06:20:57;;;;;;;27.40;12.48;;;;;;;7.62;66.08;98808.03;7647138;32;40761;-81
2023/01/16 06:25:13;;;;;;;22.33;12.00;;;;;;;7.62;66.01;98809.91;7639655;32;37572;-81
2023/01/16 06:29:29;;;;;;;28.25;13.05;;;;;;;7.45;66.57;98789.34;7643814;32;38018;-80
2023/01/16 06:33:46;;;;;;;24.50;11.38;;;;;;;7.45;66.66;98774.97;7659030;32;40071;-82
2023/01/16 06:38:02;;;;;;;26.33;12.55;;;;;;;7.57;66.05;98767.34;7635317;32;40852;-81
2023/01/16 06:42:20;;;;;;;28.10;11.85;;;;;;;7.47;66.50;98768.19;7633842;32;37995;-81
2023/01/16 06:46:36;;;;;;;26.37;12.23;;;;;;;7.59;66.08;98756.19;7643129;32;37149;-82
2023/01/16 06:50:53;;;;;;;25.52;11.93;;;;;;;7.46;66.43;98766.56;7657428;32;40110;-81
2023/01/16 06:55:09;;;;;;;22.13;11.23;;;;;;;7.49;66.34;98776.84;7633836;32;39989;-79
2023/01/16 06:59:26;;;;;;;23.85;10.68;;;;;;;7.60;65.98;98766.78;7633708;32;37975;-80
2023/01/16 07:03:42;;;;;;;22.70;10.70;;;;;;;7.60;65.91;98769.50;7632884;32;37374;-83
2023/01/16 07:07:59;;;;;;;22.40;10.55;;;;;;;7.48;66.25;98758.94;7633736;32;40692;-81
2023/01/16 07:12:15;;;;;;;24.92;11.77;;;;;;;7.51;66.18;98761.13;7703789;32;40198;-80
2023/01/16 07:25:47;;;;;;;20.23;10.18;;;;;;;7.48;66.14;98753.53;7674221;32;40087;-81
2023/01/16 07:30:03;;;;;;;21.85;11.68;;;;;;;7.39;66.07;98755.19;7683227;32;39601;-80
2023/01/16 07:34:20;;;;;;;24.02;11.23;;;;;;;7.66;65.24;98743.19;7679785;32;38779;-80
2023/01/16 07:38:37;;;;;;;25.23;12.10;;;;;;;7.59;65.26;98742.63;7685137;32;37240;-81
2023/01/16 07:42:53;;;;;;;26.62;11.55;;;;;;;7.57;65.57;98744.81;7685882;32;39885;-81
2023/01/16 07:47:12;;;;;;;26.27;13.07;;;;;;;7.60;65.59;98747.00;7679593;32;40424;-83
2023/01/16 07:51:28;;;;;;;29.63;13.88;;;;;;;7.51;66.09;98744.03;7692941;32;38423;-81
2023/01/16 07:55:46;;;;;;;25.33;12.75;;;;;;;7.55;65.84;98741.59;7684687;32;36885;-81
2023/01/16 08:00:03;;;;;;;23.95;12.90;;;;;;;7.33;66.96;98734.63;7706309;32;39322;-83
2023/01/16 08:04:19;;;;;;;25.50;13.57;;;;;;;7.57;65.63;98710.41;7706824;32;40467;-82
2023/01/16 08:08:36;;;;;;;27.87;13.80;;;;;;;7.51;65.79;98698.75;7706893;32;38145;-79
2023/01/16 08:12:52;;;;;;;28.27;13.55;;;;;;;7.77;67.25;98663.34;7701782;32;37202;-77
2023/01/16 08:17:09;;;;;;;28.87;13.57;;;;;;;7.66;65.62;98659.09;7711015;32;39395;-83
2023/01/16 08:21:26;;;;;;;33.78;17.35;;;;;;;7.80;64.82;98654.66;7692808;32;39656;-83
2023/01/16 08:25:42;;;;;;;32.92;17.17;;;;;;;7.68;64.73;98644.13;7708676;32;37821;-82
2023/01/16 08:29:58;;;;;;;28.48;13.98;;;;;;;7.59;64.78;98634.97;7710270;32;38266;-85
2023/01/16 08:34:15;;;;;;;30.80;15.02;;;;;;;7.47;65.01;98629.87;7710725;32;38991;-82
2023/01/16 08:38:31;;;;;;;28.85;14.50;;;;;;;7.33;66.77;98626.97;7710627;32;39977;-82
2023/01/16 08:52:00;;;;;;;29.37;13.45;;;;;;;7.23;65.85;98599.13;7669456;32;39338;-82
2023/01/16 08:56:17;;;;;;;28.12;13.07;;;;;;;7.51;64.83;98586.75;7657286;32;39620;-82
2023/01/16 09:00:34;;;;;;;31.00;12.68;;;;;;;7.22;65.89;98582.03;7656797;32;37665;-83
2023/01/16 09:04:50;;;;;;;23.12;11.73;;;;;;;7.08;66.23;98570.16;7645371;32;38044;-83
2023/01/16 09:09:07;;;;;;;26.27;12.27;;;;;;;7.13;66.10;98551.97;7683128;32;39008;-82
2023/01/16 09:17:59;;;;;;;23.33;11.52;;;;;;;7.13;66.18;98533.00;7656567;32;37682;-83
2023/01/16 09:22:16;;;;;;;30.20;12.15;;;;;;;7.34;65.93;98512.00;7656551;32;37356;-82
2023/01/16 09:26:32;;;;;;;21.90;12.05;;;;;;;7.31;65.98;98506.31;7656722;32;39309;-83
2023/01/16 09:30:51;;;;;;;25.70;12.70;;;;;;;7.53;65.98;98493.16;7655434;32;39012;-85
2023/01/16 09:35:08;;;;;;;28.00;13.43;;;;;;;7.48;66.71;98476.91;7656493;32;38795;-82
2023/01/16 09:39:24;;;;;;;25.50;12.48;;;;;;;7.48;66.82;98474.19;7656415;32;37984;-83
2023/01/16 09:43:42;;;;;;;26.98;13.57;;;;;;;7.30;66.74;98467.56;7656583;32;39428;-81
2023/01/16 09:48:27;;;;;;;25.48;12.75;;;;;;;7.48;65.30;98457.94;7627046;32;40904;-84
2023/01/16 10:02:07;;;;;;;22.95;11.68;;;;;;;7.55;67.62;98418.84;7628764;32;39503;-84
2023/01/16 10:06:36;;;;;;;22.70;12.27;;;;;;;7.50;66.05;98415.09;7663929;32;39718;-84
2023/01/16 10:11:06;;;;;;;27.20;13.55;;;;;;;7.27;65.54;98410.41;7668767;32;37796;-85
2023/01/16 10:15:37;;;;;;;27.62;12.57;;;;;;;7.13;66.23;98402.91;7668718;32;38034;-83
2023/01/16 10:20:10;;;;;;;22.52;12.25;;;;;;;7.43;65.80;98395.59;7651120;32;39501;-84
2023/01/16 10:25:11;;;;;;;25.45;12.63;;;;;;;7.40;65.56;98381.81;7658806;32;40846;-84
2023/01/16 10:29:39;;;;;;;26.25;13.07;;;;;;;7.28;66.44;98365.94;7646282;32;37882;-82
2023/01/16 10:34:24;;;;;;;22.75;12.63;;;;;;;7.40;66.01;98355.53;7658630;32;37676;-84
2023/01/16 10:38:55;;;;;;;26.70;12.30;;;;;;;7.51;65.22;98343.47;7657643;32;39363;-85
2023/01/16 10:52:27;;;;;;;26.02;12.88;;;;;;;7.39;65.88;98304.28;7657592;32;37960;-85
2023/01/16 10:56:46;;;;;;;28.85;14.32;;;;;;;7.20;66.11;98291.47;7645049;32;40131;-85
2023/01/16 11:01:19;;;;;;;29.65;13.52;;;;;;;7.33;65.43;98269.09;7673739;32;39898;-83
2023/01/16 11:05:37;;;;;;;27.75;12.27;;;;;;;7.17;66.07;98253.28;7646583;32;38056;-85
2023/01/16 11:09:55;;;;;;;25.98;13.18;;;;;;;7.37;65.92;98253.06;7659463;32;37704;-84
2023/01/16 11:19:27;;;;;;;26.62;13.75;;;;;;;6.83;67.49;98227.06;7501264;33;40728;-84
2023/01/16 11:23:47;;;;;;;31.08;14.93;;;;;;;6.88;67.35;98214.28;7609654;32;37873;-86
2023/01/16 11:28:08;;;;;;;32.33;14.52;;;;;;;6.82;67.85;98209.19;7646805;32;37133;-84
2023/01/16 11:32:27;;;;;;;31.83;15.30;;;;;;;6.84;67.83;98201.59;7659556;32;39370;-84
2023/01/16 11:36:46;;;;;;;33.50;15.48;;;;;;;6.12;70.09;98199.47;7645454;32;40834;-85
2023/01/16 11:41:07;;;;;;;33.65;16.27;;;;;;;6.32;69.78;98185.78;7658768;32;39026;-82
2023/01/16 11:50:19;;;;;;;38.60;15.98;;;;;;;6.83;68.47;98164.75;7644881;32;39842;-83
2023/01/16 11:54:37;;;;;;;40.10;16.85;;;;;;;6.60;69.33;98156.31;7605537;32;40778;-85
2023/01/16 11:59:11;;;;;;;34.25;16.02;;;;;;;6.70;68.47;98147.28;7630655;32;38444;-84
2023/01/16 12:04:09;;;;;;;41.92;16.58;;;;;;;6.62;68.94;98148.69;7631083;32;37158;-86
2023/01/16 12:08:49;;;;;;;32.05;16.23;;;;;;;6.61;69.17;98138.97;7614565;32;39302;-85
2023/01/16 12:18:11;;;;;;;38.30;17.02;;;;;;;6.42;70.04;98124.56;7618671;32;37582;-86
2023/01/16 12:22:45;;;;;;;38.53;17.17;;;;;;;6.55;69.28;98121.16;7618338;32;38184;-85
2023/01/16 12:27:49;;;;;;;39.60;18.83;;;;;;;6.56;69.79;98098.41;7629623;32;39198;-85
2023/01/16 12:32:17;;;;;;;45.00;18.67;;;;;;;6.59;69.69;98081.59;7596948;32;40313;-83
2023/01/16 12:37:08;;;;;;;38.70;17.67;;;;;;;5.83;72.14;98079.28;7593386;32;38845;-84
2023/01/16 12:46:17;;;;;;;40.42;17.75;;;;;;;6.31;71.17;98067.81;7617511;32;40165;-84
2023/01/16 12:50:36;;;;;;;43.63;16.62;;;;;;;6.52;69.79;98059.44;7630134;32;40089;-84
2023/01/16 12:55:05;;;;;;;35.17;16.33;;;;;;;6.32;70.85;98055.88;7630480;32;38134;-85
2023/01/16 12:59:34;;;;;;;38.10;16.75;;;;;;;6.57;69.84;98040.44;7629457;32;38197;-84
2023/01/16 13:04:12;;;;;;;38.33;17.08;;;;;;;6.55;69.98;98037.22;7615799;32;40196;-84
2023/01/16 13:08:38;;;;;;;40.03;16.92;;;;;;;6.54;70.10;98019.37;7617023;32;39988;-84
2023/01/16 13:18:03;;;;;;;36.53;16.65;;;;;;;6.88;68.63;98011.13;7643502;32;37954;-84
2023/01/16 13:22:42;;;;;;;39.67;17.15;;;;;;;6.44;70.41;98003.25;7655027;32;40164;-83
2023/01/16 13:27:03;;;;;;;34.90;14.95;;;;;;;6.62;69.30;98002.47;7645256;32;39990;-85
2023/01/16 13:31:37;;;;;;;28.12;13.65;;;;;;;6.37;70.13;97993.56;7642923;32;37775;-85
2023/01/16 13:36:11;;;;;;;27.37;13.07;;;;;;;6.80;68.87;97975.75;7654706;32;36850;-85
2023/01/16 13:41:11;;;;;;;25.08;12.70;;;;;;;6.43;69.46;97971.84;7641728;32;39022;-84
2023/01/16 13:45:49;;;;;;;21.15;10.80;;;;;;;6.83;68.79;97953.47;7538182;33;40926;-85
2023/01/16 13:50:24;;;;;;;19.27;10.93;;;;;;;7.06;67.83;97938.25;7616242;32;37611;-84
2023/01/16 13:54:46;;;;;;;21.27;10.48;;;;;;;6.33;70.01;97933.00;7654679;32;36998;-84
2023/01/16 13:59:08;;;;;;;22.45;11.05;;;;;;;6.60;69.21;97931.56;7643251;32;40150;-84
2023/01/16 14:03:27;;;;;;;21.17;11.32;;;;;;;6.72;68.92;97918.41;7657279;32;39848;-85
2023/01/16 14:12:55;;;;;;;21.45;10.82;;;;;;;6.88;68.74;97923.59;7657624;32;37911;-85
2023/01/16 14:17:12;;;;;;;19.33;9.85;;;;;;;6.92;68.28;97921.94;7646458;32;39897;-84
2023/01/16 14:27:02;;;;;;;24.48;12.68;;;;;;;6.34;69.97;97902.12;7656994;32;36481;-83
2023/01/16 14:31:35;;;;;;;25.90;12.82;;;;;;;6.55;69.41;97904.56;7567969;32;36813;-83
2023/01/16 14:35:57;;;;;;;24.90;13.73;;;;;;;6.78;68.19;97892.06;7621083;32;39281;-84
2023/01/16 14:40:21;;;;;;;27.83;14.77;;;;;;;7.26;66.12;97882.91;7642604;32;40633;-84
2023/01/16 14:59:32;;;;;;;27.87;13.95;;;;;;;6.22;68.83;97882.78;7632893;32;39645;-83
2023/01/16 15:03:49;;;;;;;23.23;12.45;;;;;;;6.76;67.02;97873.41;7619068;32;37965;-84
2023/01/16 15:08:09;;;;;;;26.10;13.38;;;;;;;6.47;67.45;97862.72;7632051;32;37964;-84
2023/01/16 15:12:39;;;;;;;23.95;12.93;;;;;;;6.56;67.24;97855.53;7631237;32;39175;-83
2023/01/16 15:21:59;;;;;;;25.58;11.95;;;;;;;6.50;67.44;97847.78;7632570;32;38491;-84
2023/01/16 15:26:26;;;;;;;21.08;11.15;;;;;;;6.47;67.19;97845.66;7632266;32;36907;-84
2023/01/16 15:30:43;;;;;;;20.55;11.20;;;;;;;6.67;66.30;97839.94;7632456;32;40161;-84
2023/01/16 15:35:22;;;;;;;20.80;11.43;;;;;;;6.73;66.03;97825.25;7631663;32;40114;-83
2023/01/16 15:39:40;;;;;;;21.73;11.73;;;;;;;6.41;67.22;97809.75;7631980;32;37958;-83
2023/01/16 15:48:52;;;;;;;23.52;11.40;;;;;;;6.20;67.98;97806.50;7621110;32;39324;-84
2023/01/16 15:53:43;;;;;;;19.90;10.60;;;;;;;6.34;67.55;97793.06;7631627;32;39677;-83
2023/01/16 15:58:04;;;;;;;18.25;10.80;;;;;;;6.86;66.00;97788.47;7632174;32;37876;-83
2023/01/16 16:02:29;;;;;;;18.37;9.52;;;;;;;6.55;66.59;97794.38;7618319;32;36165;-83
2023/01/16 16:06:49;;;;;;;21.70;10.07;;;;;;;6.81;65.33;97807.50;7618668;32;39020;-84
2023/01/16 16:20:43;;;;;;;19.50;10.63;;;;;;;6.82;66.40;97768.50;7631856;32;37290;-83
2023/01/16 16:25:16;;;;;;;19.40;10.30;;;;;;;6.73;66.58;97768.37;7630490;32;39470;-82
2023/01/16 16:29:34;;;;;;;18.17;9.65;;;;;;;6.92;66.21;97764.81;7619826;32;41306;-84
2023/01/16 16:34:15;;;;;;;17.85;9.95;;;;;;;7.00;66.03;97760.59;7631320;32;37979;-85
2023/01/16 16:38:45;;;;;;;16.67;9.52;;;;;;;6.68;66.89;97741.38;7620675;32;36793;-84
2023/01/16 16:43:02;;;;;;;18.08;9.93;;;;;;;7.06;65.27;97724.22;7611341;32;39426;-83
2023/01/16 16:47:26;;;;;;;16.45;9.63;;;;;;;6.86;66.30;97717.25;7617679;32;39896;-86
2023/01/16 16:51:46;;;;;;;17.00;9.68;;;;;;;6.98;65.95;97724.88;7617918;32;37871;-82
2023/01/16 16:56:11;;;;;;;18.23;9.63;;;;;;;6.82;66.42;97732.50;7630599;32;37125;-84
2023/01/16 17:00:30;;;;;;;16.25;9.70;;;;;;;7.14;65.78;97708.06;7631003;32;39342;-83
2023/01/16 17:04:48;;;;;;;20.88;10.18;;;;;;;7.15;65.60;97714.28;7631505;32;39727;-83
2023/01/16 17:09:06;;;;;;;19.70;10.80;;;;;;;7.07;65.76;97707.66;7617025;32;37697;-84
2023/01/16 17:13:24;;;;;;;18.02;10.38;;;;;;;7.09;65.65;97716.28;7631077;32;37237;-84
2023/01/16 17:17:44;;;;;;;20.05;11.32;;;;;;;7.20;65.82;97718.81;7630655;32;39310;-83
2023/01/16 17:22:01;;;;;;;21.37;12.13;;;;;;;7.31;65.37;97707.47;7617903;32;39894;-83
2023/01/16 17:26:18;;;;;;;20.48;12.05;;;;;;;6.94;66.65;97709.22;7630396;32;38825;-83
2023/01/16 17:30:34;;;;;;;24.60;13.93;;;;;;;7.20;66.05;97686.28;7630527;32;37236;-84
2023/01/16 17:34:51;;;;;;;28.95;15.35;;;;;;;7.28;65.82;97696.44;7622248;32;40003;-84
2023/01/16 17:39:08;;;;;;;29.95;14.90;;;;;;;7.30;65.86;97695.00;7638768;32;39755;-83
2023/01/16 17:48:01;;;;;;;25.20;14.55;;;;;;;6.91;67.57;97693.56;7638678;32;37074;-83
2023/01/16 17:52:18;;;;;;;27.23;15.43;;;;;;;7.02;66.78;97688.78;7638751;32;40083;-83
2023/01/16 17:56:35;;;;;;;29.48;15.73;;;;;;;6.91;67.29;97704.41;7639272;32;39965;-83
2023/01/16 18:00:57;;;;;;;27.35;14.82;;;;;;;6.79;67.93;97704.09;7638151;32;37981;-83
2023/01/16 18:05:14;;;;;;;26.60;15.32;;;;;;;6.70;68.31;97687.72;7639062;32;37337;-83
2023/01/16 18:09:30;;;;;;;27.85;14.52;;;;;;;6.44;69.55;97673.03;7636434;32;39267;-84
2023/01/16 18:18:23;;;;;;;31.12;16.17;;;;;;;6.76;67.97;97664.03;7638017;32;37677;-83
2023/01/16 18:22:40;;;;;;;25.90;14.57;;;;;;;7.03;67.25;97641.59;7638075;32;37274;-83
2023/01/16 18:26:58;;;;;;;28.33;15.02;;;;;;;6.66;68.62;97646.09;7638396;32;39081;-83
2023/01/16 18:31:17;;;;;;;24.52;14.60;;;;;;;7.07;67.59;97625.53;7637280;32;39188;-83
2023/01/16 18:35:35;;;;;;;25.80;13.23;;;;;;;7.38;66.41;97614.06;7637941;32;38410;-83
2023/01/16 19:02:54;;;;;;;19.45;10.25;;;;;;;6.67;67.08;97617.91;7634727;32;39385;-84
2023/01/16 19:07:20;;;;;;;15.05;8.57;;;;;;;6.91;67.06;97612.31;7664706;32;40060;-85
2023/01/16 19:11:36;;;;;;;15.05;8.65;;;;;;;6.61;65.62;97599.38;7661468;32;38682;-85
2023/01/16 19:20:28;;;;;;;15.15;9.02;;;;;;;6.43;66.48;97582.88;7659123;32;39550;-83
2023/01/16 19:24:44;;;;;;;19.17;9.40;;;;;;;6.32;67.74;97606.63;7658950;32;40081;-82
2023/01/16 19:29:00;;;;;;;18.08;9.75;;;;;;;6.86;65.92;97584.53;7656804;32;37773;-83
2023/01/16 19:33:17;;;;;;;16.92;9.65;;;;;;;7.14;65.48;97598.88;7649466;32;37152;-85
2023/01/16 19:37:34;;;;;;;15.10;9.32;;;;;;;7.30;64.71;97578.47;7665331;32;40092;-84
2023/01/16 19:51:13;;;;;;;15.75;9.15;;;;;;;7.67;62.77;97570.31;7623745;32;36786;-82
2023/01/16 19:55:30;;;;;;;17.40;8.95;;;;;;;7.21;62.34;97574.88;7644816;32;39367;-82
2023/01/16 19:59:46;;;;;;;18.17;9.85;;;;;;;7.53;61.98;97568.44;7658387;32;39981;-83
2023/01/16 20:04:04;;;;;;;17.92;10.02;;;;;;;7.42;63.12;97579.84;7657149;32;38561;-83
2023/01/16 20:08:20;;;;;;;14.63;8.68;;;;;;;7.49;62.14;97578.31;7657532;32;38041;-84
2023/01/16 20:12:36;;;;;;;17.70;9.50;;;;;;;7.30;63.01;97580.38;7657529;32;40115;-84
2023/01/16 20:16:53;;;;;;;17.37;9.45;;;;;;;7.44;63.82;97564.88;7657227;32;40683;-83
2023/01/16 20:21:09;;;;;;;17.00;9.00;;;;;;;7.59;63.46;97576.47;7657662;32;37525;-83
2023/01/16 20:25:25;;;;;;;14.55;8.10;;;;;;;7.51;63.13;97570.66;7656768;32;37240;-83
2023/01/16 20:29:43;;;;;;;18.27;8.45;;;;;;;7.52;62.77;97571.50;7657619;32;40030;-82
2023/01/16 20:33:59;;;;;;;13.13;7.60;;;;;;;7.41;63.07;97576.31;7656812;32;40824;-83
2023/01/16 20:38:15;;;;;;;10.27;5.47;;;;;;;7.41;61.95;97573.59;7657344;32;37637;-82
2023/01/16 20:47:10;;;;;;;12.10;6.85;;;;;;;7.42;61.64;97571.72;7656784;32;39110;-83
2023/01/16 20:51:26;;;;;;;14.35;7.93;;;;;;;7.52;61.93;97572.28;7644190;32;40025;-82
2023/01/16 20:55:44;;;;;;;15.43;8.10;;;;;;;7.75;61.85;97539.75;7656500;32;38008;-83
2023/01/16 21:00:02;;;;;;;14.00;7.70;;;;;;;7.56;62.65;97552.69;7644039;32;37919;-82
2023/01/16 21:04:20;;;;;;;12.68;6.97;;;;;;;7.90;61.42;97549.44;7655392;32;40242;-82
2023/01/16 21:08:36;;;;;;;13.05;6.40;;;;;;;7.14;63.09;97559.03;7651999;32;40110;-84
2023/01/16 21:22:02;;;;;;;11.88;6.32;;;;;;;7.27;62.30;97548.44;7682942;32;39358;-83
2023/01/16 21:26:18;;;;;;;11.55;6.70;;;;;;;7.19;63.21;97551.88;7677076;32;40090;-83
2023/01/16 21:30:35;;;;;;;11.40;6.45;;;;;;;7.45;62.19;97547.50;7680337;32;37378;-82
2023/01/16 21:34:52;;;;;;;12.37;6.90;;;;;;;7.60;62.24;97546.34;7680366;32;36779;-84
2023/01/16 21:39:09;;;;;;;13.70;5.78;;;;;;;7.52;62.48;97555.22;7656115;32;39395;-85
2023/01/16 21:48:09;;;;;;;10.05;5.57;;;;;;;7.32;63.15;97545.63;7669651;32;37912;-83
2023/01/16 21:52:25;;;;;;;9.00;5.55;;;;;;;7.38;62.95;97544.41;7655897;32;36073;-82
2023/01/16 21:56:41;;;;;;;14.35;7.00;;;;;;;7.32;63.15;97540.22;7669007;32;39132;-83
2023/01/16 22:01:03;;;;;;;13.80;6.40;;;;;;;7.37;63.25;97529.25;7682068;32;40794;-84
2023/01/16 22:05:20;;;;;;;10.85;5.35;;;;;;;7.08;64.46;97530.41;7677813;32;38386;-82
2023/01/16 22:09:37;;;;;;;7.50;4.75;;;;;;;7.30;63.37;97524.25;7655067;32;37931;-83
2023/01/16 22:18:31;;;;;;;7.47;4.50;;;;;;;7.33;63.10;97525.56;7627716;32;39833;-84
2023/01/16 22:22:51;;;;;;;8.10;4.40;;;;;;;6.71;64.82;97521.44;7630922;32;37878;-83
2023/01/16 22:27:07;;;;;;;7.15;4.37;;;;;;;6.56;65.47;97532.56;7647343;32;37144;-84
2023/01/16 22:31:24;;;;;;;8.70;4.55;;;;;;;6.95;64.87;97520.41;7659138;32;39344;-82
2023/01/16 22:35:40;;;;;;;8.40;4.55;;;;;;;6.98;64.09;97514.38;7658796;32;40774;-85
2023/01/16 22:39:56;;;;;;;7.85;4.72;;;;;;;7.24;63.74;97522.75;7645668;32;37872;-85
2023/01/16 22:48:49;;;;;;;10.18;5.12;;;;;;;7.59;63.49;97508.69;7606761;32;40113;-84
2023/01/16 22:53:05;;;;;;;6.62;4.50;;;;;;;7.34;63.77;97517.09;7606427;32;39711;-83
2023/01/16 22:57:21;;;;;;;11.48;5.50;;;;;;;7.40;63.96;97498.81;7641653;32;38384;-83
2023/01/16 23:01:38;;;;;;;9.68;4.85;;;;;;;7.31;63.81;97504.19;7659032;32;37901;-81
2023/01/16 23:05:54;;;;;;;9.30;5.55;;;;;;;7.50;63.65;97493.16;7650989;32;39229;-82
2023/01/16 23:10:10;;;;;;;9.85;5.30;;;;;;;7.18;64.76;97502.31;7650582;32;254850;-83
2023/01/16 23:14:28;;;;;;;9.40;4.68;;;;;;;7.11;65.00;97496.50;7658094;32;37752;-82
2023/01/16 23:18:44;;;;;;;6.97;4.75;;;;;;;7.13;65.09;97497.00;7656716;32;37051;-82
2023/01/16 23:23:00;;;;;;;9.07;4.80;;;;;;;7.21;63.87;97496.28;7658543;32;39435;-82
2023/01/16 23:27:17;;;;;;;9.75;5.55;;;;;;;7.44;63.03;97480.84;7658409;32;39945;-81